PWSweather.com
Personal Weather Stations
Station Observations
BC052CD
On, Kemptville, ON K0G 1J0

OnKemptville, ON K0G 1J0

Lat: 45.0173179, Lon: -75.6329355

Elevation: 295

Station Type: National Geographic 265NC

http://kerrentweather.ca

Latest ConditionsUpdated 8:00:05 AM EST Sunday, Nov 18, 2018
Currently Today's Max Today's Min Today's Average
Temperature 2.5°F-16.4°C 12.9°F-10.6°C 0.7°F-17.4°C 6.1°F-14.4°C
Dew Point -3.8°F-19.9°C 5.6°F-14.7°C -6.1°F-21.2°C -1.0°F-18.3°C
Winds Calm Calm 0.8 mph -1.3 kmh - - 0.1 mph 0.2 kmh
Wind Gusts 0.8 mph1.3 kmh 2.0 mph3.2 kmh - -
Humidity 74% 74% 70% 72%
Pressure 30.43 in1030.5 mb 30.43 in1030.5 mb 30.38 in1028.8 mb -
Hour Temp Dew Point Humidity Winds Wind Gusts Pressure Precip Precip Rate Daily Precip Total
08:00 AM 2.5°F-16.4°C -3.8°F-19.9°C 74% Calm Calm 0.8 mph1.3 kmh 30.43 in1030.5 mb 0.00 in0.0 mm 0.00 in0.0 mm 0.00 in0.0 mm
07:45 AM 1.4°F-17.0°C -5.1°F-20.6°C 73% Calm Calm 2.0 mph3.2 kmh 30.43 in1030.5 mb 0.00 in0.0 mm 0.00 in0.0 mm 0.00 in0.0 mm
07:30 AM 0.9°F-17.3°C -5.6°F-20.9°C 73% Calm Calm 2.0 mph3.2 kmh 30.43 in1030.5 mb 0.00 in0.0 mm 0.00 in0.0 mm 0.00 in0.0 mm
07:15 AM 0.7°F-17.4°C -6.1°F-21.2°C 72% Calm Calm -- 30.42 in1030.1 mb 0.00 in0.0 mm 0.00 in0.0 mm 0.00 in0.0 mm
07:00 AM 0.9°F-17.3°C -5.9°F-21.1°C 72% Calm Calm 0.8 mph1.3 kmh 30.42 in1030.1 mb 0.00 in0.0 mm 0.00 in0.0 mm 0.00 in0.0 mm
06:45 AM 0.9°F-17.3°C -5.9°F-21.1°C 72% Calm Calm 0.8 mph1.3 kmh 30.42 in1030.1 mb 0.00 in0.0 mm 0.00 in0.0 mm 0.00 in0.0 mm
06:30 AM 0.9°F-17.3°C -5.9°F-21.1°C 72% Calm Calm 0.8 mph1.3 kmh 30.42 in1030.1 mb 0.00 in0.0 mm 0.00 in0.0 mm 0.00 in0.0 mm
06:15 AM 1.0°F-17.2°C -5.8°F-21.0°C 72% Calm Calm 0.8 mph1.3 kmh 30.42 in1030.1 mb 0.00 in0.0 mm 0.00 in0.0 mm 0.00 in0.0 mm
06:00 AM 1.4°F-17.0°C -5.4°F-20.8°C 72% 0.8 mph N1.3 kmh N 2.0 mph3.2 kmh 30.42 in1030.1 mb 0.00 in0.0 mm 0.00 in0.0 mm 0.00 in0.0 mm
05:45 AM 1.6°F-16.9°C -5.2°F-20.7°C 72% Calm Calm 2.0 mph3.2 kmh 30.42 in1030.1 mb 0.00 in0.0 mm 0.00 in0.0 mm 0.00 in0.0 mm
05:30 AM 1.8°F-16.8°C -5.1°F-20.6°C 72% Calm Calm 0.8 mph1.3 kmh 30.42 in1030.1 mb 0.00 in0.0 mm 0.00 in0.0 mm 0.00 in0.0 mm
05:15 AM 1.8°F-16.8°C -5.1°F-20.6°C 72% Calm Calm 2.0 mph3.2 kmh 30.41 in1029.8 mb 0.00 in0.0 mm 0.00 in0.0 mm 0.00 in0.0 mm
04:40 AM 2.7°F-16.3°C -4.3°F-20.2°C 72% Calm Calm -- 30.41 in1029.8 mb 0.00 in0.0 mm 0.00 in0.0 mm 0.00 in0.0 mm
04:35 AM 2.8°F-16.2°C -4.1°F-20.1°C 72% Calm Calm -- 30.41 in1029.8 mb 0.00 in0.0 mm 0.00 in0.0 mm 0.00 in0.0 mm
04:30 AM 3.0°F-16.1°C -4.0°F-20.0°C 72% Calm Calm -- 30.41 in1029.8 mb 0.00 in0.0 mm 0.00 in0.0 mm 0.00 in0.0 mm
04:25 AM 3.0°F-16.1°C -4.0°F-20.0°C 72% Calm Calm -- 30.41 in1029.8 mb 0.00 in0.0 mm 0.00 in0.0 mm 0.00 in0.0 mm
04:20 AM 3.0°F-16.1°C -4.0°F-20.0°C 72% Calm Calm 0.8 mph1.3 kmh 30.41 in1029.8 mb 0.00 in0.0 mm 0.00 in0.0 mm 0.00 in0.0 mm
04:15 AM 3.0°F-16.1°C -4.0°F-20.0°C 72% Calm Calm 0.8 mph1.3 kmh 30.41 in1029.8 mb 0.00 in0.0 mm 0.00 in0.0 mm 0.00 in0.0 mm
04:10 AM 3.0°F-16.1°C -4.0°F-20.0°C 72% Calm Calm 0.8 mph1.3 kmh 30.41 in1029.8 mb 0.00 in0.0 mm 0.00 in0.0 mm 0.00 in0.0 mm
04:05 AM 3.2°F-16.0°C -3.8°F-19.9°C 72% Calm Calm -- 30.41 in1029.8 mb 0.00 in0.0 mm 0.00 in0.0 mm 0.00 in0.0 mm
04:00 AM 3.6°F-15.8°C -3.5°F-19.7°C 72% Calm Calm -- 30.41 in1029.8 mb 0.00 in0.0 mm 0.00 in0.0 mm 0.00 in0.0 mm
03:55 AM 3.7°F-15.7°C -3.3°F-19.6°C 72% Calm Calm -- 30.41 in1029.8 mb 0.00 in0.0 mm 0.00 in0.0 mm 0.00 in0.0 mm
03:50 AM 3.7°F-15.7°C -3.3°F-19.6°C 72% Calm Calm 0.8 mph1.3 kmh 30.41 in1029.8 mb 0.00 in0.0 mm 0.00 in0.0 mm 0.00 in0.0 mm
03:45 AM 4.1°F-15.5°C -2.9°F-19.4°C 72% Calm Calm 0.8 mph1.3 kmh 30.41 in1029.8 mb 0.00 in0.0 mm 0.00 in0.0 mm 0.00 in0.0 mm
03:40 AM 4.3°F-15.4°C -2.8°F-19.3°C 72% Calm Calm 0.8 mph1.3 kmh 30.41 in1029.8 mb 0.00 in0.0 mm 0.00 in0.0 mm 0.00 in0.0 mm
03:35 AM 4.5°F-15.3°C -2.6°F-19.2°C 72% Calm Calm 0.8 mph1.3 kmh 30.41 in1029.8 mb 0.00 in0.0 mm 0.00 in0.0 mm 0.00 in0.0 mm
03:30 AM 4.5°F-15.3°C -2.6°F-19.2°C 72% Calm Calm 0.8 mph1.3 kmh 30.41 in1029.8 mb 0.00 in0.0 mm 0.00 in0.0 mm 0.00 in0.0 mm
03:25 AM 4.6°F-15.2°C -2.4°F-19.1°C 72% Calm Calm 2.0 mph3.2 kmh 30.40 in1029.5 mb 0.00 in0.0 mm 0.00 in0.0 mm 0.00 in0.0 mm
03:20 AM 5.0°F-15.0°C -2.1°F-18.9°C 72% Calm Calm 2.0 mph3.2 kmh 30.41 in1029.8 mb 0.00 in0.0 mm 0.00 in0.0 mm 0.00 in0.0 mm
03:15 AM 5.2°F-14.9°C -1.9°F-18.8°C 72% 0.8 mph N1.3 kmh N 2.0 mph3.2 kmh 30.40 in1029.5 mb 0.00 in0.0 mm 0.00 in0.0 mm 0.00 in0.0 mm
03:10 AM 5.2°F-14.9°C -1.9°F-18.8°C 72% Calm Calm 0.8 mph1.3 kmh 30.40 in1029.5 mb 0.00 in0.0 mm 0.00 in0.0 mm 0.00 in0.0 mm
03:05 AM 5.4°F-14.8°C -1.7°F-18.7°C 72% Calm Calm 2.0 mph3.2 kmh 30.41 in1029.8 mb 0.00 in0.0 mm 0.00 in0.0 mm 0.00 in0.0 mm
03:00 AM 5.5°F-14.7°C -1.5°F-18.6°C 72% Calm Calm 2.0 mph3.2 kmh 30.40 in1029.5 mb 0.00 in0.0 mm 0.00 in0.0 mm 0.00 in0.0 mm
02:55 AM 5.5°F-14.7°C -1.5°F-18.6°C 72% Calm Calm 2.0 mph3.2 kmh 30.41 in1029.8 mb 0.00 in0.0 mm 0.00 in0.0 mm 0.00 in0.0 mm
02:50 AM 5.7°F-14.6°C -1.4°F-18.6°C 72% Calm Calm 0.8 mph1.3 kmh 30.40 in1029.5 mb 0.00 in0.0 mm 0.00 in0.0 mm 0.00 in0.0 mm
02:45 AM 5.9°F-14.5°C -1.2°F-18.4°C 72% Calm Calm -- 30.40 in1029.5 mb 0.00 in0.0 mm 0.00 in0.0 mm 0.00 in0.0 mm
02:40 AM 6.3°F-14.3°C -0.5°F-18.1°C 73% Calm Calm 0.8 mph1.3 kmh 30.39 in1029.1 mb 0.00 in0.0 mm 0.00 in0.0 mm 0.00 in0.0 mm
02:35 AM 6.4°F-14.2°C -0.4°F-18.0°C 73% Calm Calm 0.8 mph1.3 kmh 30.41 in1029.8 mb 0.00 in0.0 mm 0.00 in0.0 mm 0.00 in0.0 mm
02:30 AM 6.4°F-14.2°C -0.4°F-18.0°C 73% Calm Calm 2.0 mph3.2 kmh 30.41 in1029.8 mb 0.00 in0.0 mm 0.00 in0.0 mm 0.00 in0.0 mm
02:25 AM 6.6°F-14.1°C -0.2°F-17.9°C 73% Calm Calm 2.0 mph3.2 kmh 30.41 in1029.8 mb 0.00 in0.0 mm 0.00 in0.0 mm 0.00 in0.0 mm
02:20 AM 7.0°F-13.9°C -0.1°F-17.8°C 72% 0.8 mph N1.3 kmh N 2.0 mph3.2 kmh 30.40 in1029.5 mb 0.00 in0.0 mm 0.00 in0.0 mm 0.00 in0.0 mm
02:15 AM 7.2°F-13.8°C 0.3°F-17.6°C 73% Calm Calm 0.8 mph1.3 kmh 30.40 in1029.5 mb 0.00 in0.0 mm 0.00 in0.0 mm 0.00 in0.0 mm
02:10 AM 7.3°F-13.7°C 0.5°F-17.5°C 73% Calm Calm 0.8 mph1.3 kmh 30.40 in1029.5 mb 0.00 in0.0 mm 0.00 in0.0 mm 0.00 in0.0 mm
02:05 AM 7.5°F-13.6°C 0.7°F-17.4°C 73% Calm Calm 0.8 mph1.3 kmh 30.39 in1029.1 mb 0.00 in0.0 mm 0.00 in0.0 mm 0.00 in0.0 mm
02:00 AM 7.7°F-13.5°C 0.8°F-17.3°C 73% Calm Calm 0.8 mph1.3 kmh 30.39 in1029.1 mb 0.00 in0.0 mm 0.00 in0.0 mm 0.00 in0.0 mm
01:55 AM 7.9°F-13.4°C 1.0°F-17.2°C 73% Calm Calm 0.8 mph1.3 kmh 30.40 in1029.5 mb 0.00 in0.0 mm 0.00 in0.0 mm 0.00 in0.0 mm
01:50 AM 7.9°F-13.4°C 1.0°F-17.2°C 73% Calm Calm 0.8 mph1.3 kmh 30.39 in1029.1 mb 0.00 in0.0 mm 0.00 in0.0 mm 0.00 in0.0 mm
01:45 AM 8.1°F-13.3°C 1.2°F-17.1°C 73% Calm Calm 0.8 mph1.3 kmh 30.39 in1029.1 mb 0.00 in0.0 mm 0.00 in0.0 mm 0.00 in0.0 mm
01:40 AM 8.2°F-13.2°C 1.1°F-17.2°C 72% Calm Calm 0.8 mph1.3 kmh 30.39 in1029.1 mb 0.00 in0.0 mm 0.00 in0.0 mm 0.00 in0.0 mm
01:35 AM 8.4°F-13.1°C 1.2°F-17.1°C 72% Calm Calm 0.8 mph1.3 kmh 30.39 in1029.1 mb 0.00 in0.0 mm 0.00 in0.0 mm 0.00 in0.0 mm
01:30 AM 8.6°F-13.0°C 1.4°F-17.0°C 72% Calm Calm 2.0 mph3.2 kmh 30.39 in1029.1 mb 0.00 in0.0 mm 0.00 in0.0 mm 0.00 in0.0 mm
01:25 AM 9.0°F-12.8°C 1.8°F-16.8°C 72% Calm Calm 2.0 mph3.2 kmh 30.39 in1029.1 mb 0.00 in0.0 mm 0.00 in0.0 mm 0.00 in0.0 mm
01:20 AM 9.1°F-12.7°C 1.9°F-16.7°C 72% 0.8 mph N1.3 kmh N 2.0 mph3.2 kmh 30.39 in1029.1 mb 0.00 in0.0 mm 0.00 in0.0 mm 0.00 in0.0 mm
01:15 AM 9.3°F-12.6°C 2.1°F-16.6°C 72% Calm Calm 0.8 mph1.3 kmh 30.39 in1029.1 mb 0.00 in0.0 mm 0.00 in0.0 mm 0.00 in0.0 mm
01:10 AM 9.5°F-12.5°C 2.3°F-16.5°C 72% Calm Calm 0.8 mph1.3 kmh 30.39 in1029.1 mb 0.00 in0.0 mm 0.00 in0.0 mm 0.00 in0.0 mm
01:05 AM 9.9°F-12.3°C 2.6°F-16.3°C 72% Calm Calm -- 30.39 in1029.1 mb 0.00 in0.0 mm 0.00 in0.0 mm 0.00 in0.0 mm
01:00 AM 10.2°F-12.1°C 3.3°F-15.9°C 73% Calm Calm 0.8 mph1.3 kmh 30.39 in1029.1 mb 0.00 in0.0 mm 0.00 in0.0 mm 0.00 in0.0 mm
12:55 AM 10.4°F-12.0°C 3.2°F-16.0°C 72% Calm Calm 0.8 mph1.3 kmh 30.39 in1029.1 mb 0.00 in0.0 mm 0.00 in0.0 mm 0.00 in0.0 mm
12:50 AM 10.4°F-12.0°C 3.2°F-16.0°C 72% Calm Calm 0.8 mph1.3 kmh 30.39 in1029.1 mb 0.00 in0.0 mm 0.00 in0.0 mm 0.00 in0.0 mm
12:45 AM 10.6°F-11.9°C 3.3°F-15.9°C 72% Calm Calm 2.0 mph3.2 kmh 30.39 in1029.1 mb 0.00 in0.0 mm 0.00 in0.0 mm 0.00 in0.0 mm
12:40 AM 10.8°F-11.8°C 3.5°F-15.8°C 72% Calm Calm 2.0 mph3.2 kmh 30.39 in1029.1 mb 0.00 in0.0 mm 0.00 in0.0 mm 0.00 in0.0 mm
12:35 AM 10.9°F-11.7°C 3.7°F-15.7°C 72% Calm Calm 2.0 mph3.2 kmh 30.39 in1029.1 mb 0.00 in0.0 mm 0.00 in0.0 mm 0.00 in0.0 mm
12:30 AM 10.9°F-11.7°C 3.7°F-15.7°C 72% Calm Calm 2.0 mph3.2 kmh 30.39 in1029.1 mb 0.00 in0.0 mm 0.00 in0.0 mm 0.00 in0.0 mm
12:25 AM 11.1°F-11.6°C 3.9°F-15.6°C 72% Calm Calm 2.0 mph3.2 kmh 30.38 in1028.8 mb 0.00 in0.0 mm 0.00 in0.0 mm 0.00 in0.0 mm
12:20 AM 11.1°F-11.6°C 3.5°F-15.8°C 70% 0.8 mph N1.3 kmh N 2.0 mph3.2 kmh 30.39 in1029.1 mb 0.00 in0.0 mm 0.00 in0.0 mm 0.00 in0.0 mm
12:15 AM 11.3°F-11.5°C 3.7°F-15.7°C 70% Calm Calm -- 30.39 in1029.1 mb 0.00 in0.0 mm 0.00 in0.0 mm 0.00 in0.0 mm
12:10 AM 11.8°F-11.2°C 4.2°F-15.4°C 70% Calm Calm -- 30.38 in1028.8 mb 0.00 in0.0 mm 0.00 in0.0 mm 0.00 in0.0 mm
12:05 AM 12.4°F-10.9°C 4.8°F-15.1°C 70% Calm Calm -- 30.39 in1029.1 mb 0.00 in0.0 mm 0.00 in0.0 mm 0.00 in0.0 mm
12:00 AM 12.9°F-10.6°C 5.6°F-14.7°C 72% Calm Calm -- 30.39 in1029.1 mb 0.00 in0.0 mm 0.00 in0.0 mm 0.00 in0.0 mm